New Orleans, LA (70112)

5:08 AM CST on February 21, 2017 (GMT -0600)
Faubourg St. John | | Change Station

Elev 16 ft 29.98 °N, 90.08 °W | Updated 23 seconds ago

Rain
Rain
61.3 °F
Feels Like 61.3 °F
N
0.0
Wind Variable Wind from SE
Gusts 0.0 mph

Today
High -- | Low -- °F
--% Chance of Precip.
Yesterday
High -- | Low -- °F
Precip. -- in
Pressure 29.91 in
Visibility 9.0 miles
Clouds Few 6000 ft
Mostly Cloudy 8500 ft
Overcast 11000 ft
Dew Point 61 °F
Humidity 98%
Rainfall 0.45 in
Snow Depth Not available.
6:34 AM 5:53 PM
Waning Crescent, 26% visible
METAR KNEW 211053Z AUTO 11011KT 9SM -RA FEW060 BKN085 OVC110 17/16 A2993 RMK AO2 RAB20 PRESFR SLP127 P0005 T01670161
Pressure 29.91 in
Visibility 9.0 miles
Clouds Few 6000 ft
Mostly Cloudy 8500 ft
Overcast 11000 ft
Dew Point 61 °F
Humidity 98%
Rainfall 0.45 in
Snow Depth Not available.
6:34 AM 5:53 PM
Waning Crescent, 26% visible
METAR KNEW 211053Z AUTO 11011KT 9SM -RA FEW060 BKN085 OVC110 17/16 A2993 RMK AO2 RAB20 PRESFR SLP127 P0005 T01670161

Get Your Daily Forecast Email!

Thanks for signing up!

Be on the lookout for a verification email in your inbox.

You'll start receiving the daily forecast at 8 AM.

×

10-Day Weather Forecast

Almanac

Astronomy

Feb. 21, 2017 Rise Set
Actual Time
Civil Twilight
Nautical Twilight
Astronomical Twilight
Moon
Length of Visible Light
Length of Day
Tomorrow will be .
, % of the Moon is Illuminated

Today's Extremes

State Highs State Lows

Community

WunderPhotos

Upload Photos

1,962,540 photos uploaded!

WunderBlog® & News

Nearby

Air Quality

  Air Quality AQ Index Pollutant
Not available.

Snow Depth

Station Depth Elevation

Earthquake Activity

City Distance Mag. Time & Date
Minimum magnitude displayed is 2.5.

Coastal Water Temperatures

Place Temperature

Stations

Nearby Weather Stations

Station Location Temp. Windchill Dew Point Humidity Wind Precip. Elev Updated Type
                   

Watches & Warnings

There are currently no watches in effect.